createdAt,value
2019-03-04T00:01:40.308Z,17.90
2019-03-04T00:04:11.795Z,18.12
2019-03-04T00:06:43.256Z,18.82
2019-03-04T00:09:14.690Z,17.35
2019-03-04T00:11:46.145Z,17.77
2019-03-04T00:14:17.591Z,17.20
2019-03-04T00:16:49.257Z,16.15
2019-03-04T00:19:20.598Z,16.67
2019-03-04T00:21:52.054Z,16.12
2019-03-04T00:24:23.601Z,17.77
2019-03-04T00:26:55.103Z,17.95
2019-03-04T00:29:27.512Z,17.80
2019-03-04T00:31:58.992Z,17.62
2019-03-04T00:34:30.467Z,17.73
2019-03-04T00:37:01.967Z,15.75
2019-03-04T00:39:33.302Z,19.30
2019-03-04T00:42:04.690Z,17.80
2019-03-04T00:44:36.019Z,17.27
2019-03-04T00:47:07.480Z,19.00
2019-03-04T00:49:38.897Z,16.73
2019-03-04T00:52:10.365Z,17.95
2019-03-04T00:54:41.861Z,18.73
2019-03-04T00:57:13.187Z,17.20
2019-03-04T00:59:44.523Z,18.27
2019-03-04T01:02:15.957Z,17.07
2019-03-04T01:04:47.269Z,18.60
2019-03-04T01:07:18.609Z,17.23
2019-03-04T01:09:50.469Z,13.62
2019-03-04T01:12:21.803Z,16.57
2019-03-04T01:14:53.222Z,17.02
2019-03-04T01:17:24.590Z,16.67
2019-03-04T01:19:55.963Z,18.23
2019-03-04T01:22:27.359Z,17.62
2019-03-04T01:24:58.811Z,17.07
2019-03-04T01:27:30.200Z,17.37
2019-03-04T01:30:01.584Z,16.73
2019-03-04T01:32:33.013Z,17.15
2019-03-04T01:35:05.609Z,15.70
2019-03-04T01:37:36.999Z,16.82
2019-03-04T01:40:14.441Z,17.73
2019-03-04T01:42:45.812Z,17.50
2019-03-04T01:45:18.175Z,15.32
2019-03-04T01:47:49.654Z,17.23
2019-03-04T01:50:21.064Z,17.35
2019-03-04T01:52:52.398Z,18.67
2019-03-04T01:55:23.795Z,14.13
2019-03-04T01:57:55.249Z,14.80
2019-03-04T02:00:26.701Z,15.60
2019-03-04T02:02:58.140Z,17.67
2019-03-04T02:05:29.523Z,18.87
2019-03-04T02:08:00.945Z,18.05
2019-03-04T02:10:32.402Z,17.82
2019-03-04T02:13:04.983Z,17.67
2019-03-04T02:15:36.382Z,18.87
2019-03-04T02:18:07.855Z,20.88
2019-03-04T02:20:39.321Z,18.07
2019-03-04T02:23:10.647Z,18.80
2019-03-04T02:25:45.348Z,19.27
2019-03-04T02:28:16.601Z,18.92
2019-03-04T02:30:48.100Z,18.67
2019-03-04T02:33:19.814Z,19.57
2019-03-04T02:35:51.245Z,18.52
2019-03-04T02:38:22.760Z,17.73
2019-03-04T02:40:54.094Z,19.65
2019-03-04T02:43:26.455Z,19.67
2019-03-04T02:45:57.930Z,18.50
2019-03-04T02:48:29.261Z,18.55
2019-03-04T02:51:00.613Z,19.23
2019-03-04T02:53:31.942Z,18.62
2019-03-04T02:56:03.409Z,19.50
2019-03-04T02:58:34.861Z,20.75
2019-03-04T03:01:06.534Z,20.88
2019-03-04T03:03:37.971Z,20.52
2019-03-04T03:06:09.422Z,19.48
2019-03-04T03:08:40.763Z,21.15
2019-03-04T03:11:12.111Z,20.08
2019-03-04T03:13:43.567Z,21.48
2019-03-04T03:16:15.017Z,20.70
2019-03-04T03:18:46.397Z,20.70
2019-03-04T03:21:17.832Z,21.80
2019-03-04T03:23:49.226Z,21.00
2019-03-04T03:26:20.711Z,20.60
2019-03-04T03:28:52.029Z,21.48
2019-03-04T03:31:23.516Z,23.45
2019-03-04T03:33:54.875Z,24.47
2019-03-04T03:36:26.336Z,18.80
2019-03-04T03:38:57.619Z,27.65
2019-03-04T03:41:29.114Z,21.90
2019-03-04T03:44:00.495Z,22.65
2019-03-04T03:46:31.845Z,32.45
2019-03-04T03:49:03.282Z,20.27
2019-03-04T03:51:34.801Z,25.17
2019-03-04T03:54:06.267Z,26.65
2019-03-04T03:56:37.819Z,25.72
2019-03-04T03:59:09.149Z,23.80
2019-03-04T04:01:40.473Z,24.52
2019-03-04T04:04:11.944Z,27.22
2019-03-04T04:06:43.605Z,23.20
2019-03-04T04:09:15.163Z,25.02
2019-03-04T04:11:46.394Z,26.37
2019-03-04T04:14:17.864Z,24.40
2019-03-04T04:16:49.290Z,26.62
2019-03-04T04:19:20.762Z,25.62
2019-03-04T04:21:52.197Z,24.27
2019-03-04T04:24:23.560Z,27.07
2019-03-04T04:26:55.005Z,26.23
2019-03-04T04:29:26.333Z,28.95
2019-03-04T04:31:57.743Z,20.25
2019-03-04T04:34:29.109Z,20.77
2019-03-04T04:37:00.412Z,18.70
2019-03-04T04:39:31.760Z,25.82
2019-03-04T04:42:03.204Z,27.15
2019-03-04T04:44:34.631Z,29.80
2019-03-04T04:47:06.865Z,28.05
2019-03-04T04:49:38.259Z,29.23
2019-03-04T04:52:09.574Z,26.97
2019-03-04T04:54:40.904Z,24.95
2019-03-04T04:57:12.228Z,29.07
2019-03-04T04:59:43.653Z,27.90
2019-03-04T05:02:14.908Z,28.20
2019-03-04T05:04:46.270Z,27.20
2019-03-04T05:07:17.642Z,28.47
2019-03-04T05:09:49.011Z,29.48
2019-03-04T05:12:20.391Z,30.08
2019-03-04T05:14:51.843Z,31.20
2019-03-04T05:17:23.162Z,27.30
2019-03-04T05:19:54.538Z,28.17
2019-03-04T05:22:25.919Z,29.82
2019-03-04T05:24:57.437Z,28.40
2019-03-04T05:27:28.991Z,29.87
2019-03-04T05:30:00.355Z,28.02
2019-03-04T05:32:31.894Z,27.87
2019-03-04T05:35:03.239Z,26.80
2019-03-04T05:37:34.674Z,26.77
2019-03-04T05:40:11.607Z,26.10
2019-03-04T05:42:43.292Z,27.45
2019-03-04T05:45:16.067Z,28.23
2019-03-04T05:47:47.561Z,28.38
2019-03-04T05:50:26.343Z,26.62
2019-03-04T05:52:57.704Z,29.10
2019-03-04T05:55:29.284Z,27.45
2019-03-04T05:58:00.637Z,27.85
2019-03-04T06:00:39.306Z,27.37
2019-03-04T06:03:16.939Z,29.02
2019-03-04T06:05:48.387Z,29.25
2019-03-04T06:08:19.854Z,47.95
2019-03-04T06:10:51.227Z,29.40
2019-03-04T06:13:22.539Z,33.48
2019-03-04T06:15:53.859Z,19.48
2019-03-04T06:18:25.333Z,28.38
2019-03-04T06:20:56.680Z,29.87
2019-03-04T06:23:28.120Z,31.80
2019-03-04T06:25:59.598Z,29.37
2019-03-04T06:28:30.950Z,27.37
2019-03-04T06:31:02.478Z,28.77
2019-03-04T06:33:34.115Z,31.82
2019-03-04T06:36:05.566Z,31.40
2019-03-04T06:38:36.894Z,29.42
2019-03-04T06:41:08.270Z,29.25
2019-03-04T06:43:40.136Z,26.73
2019-03-04T06:46:11.567Z,27.52
2019-03-04T06:48:43.046Z,19.23
2019-03-04T06:51:23.836Z,26.23
2019-03-04T06:54:07.355Z,27.35
2019-03-04T06:56:47.165Z,26.85
2019-03-04T06:59:39.644Z,28.42
2019-03-04T07:02:19.999Z,24.60
2019-03-04T07:05:00.389Z,25.80
2019-03-04T07:07:31.806Z,26.02
2019-03-04T07:10:03.172Z,26.33
2019-03-04T07:12:34.587Z,23.75
2019-03-04T07:15:07.756Z,25.15
2019-03-04T07:17:39.145Z,26.05
2019-03-04T07:20:15.947Z,22.82
2019-03-04T07:22:48.509Z,27.55
2019-03-04T07:25:20.277Z,28.25
2019-03-04T07:27:51.642Z,28.32
2019-03-04T07:30:23.044Z,24.30
2019-03-04T07:32:54.398Z,24.45
2019-03-04T07:35:25.746Z,23.65
2019-03-04T07:38:11.607Z,23.20
2019-03-04T07:40:43.097Z,23.62
2019-03-04T07:43:14.538Z,22.00
2019-03-04T07:45:45.985Z,24.00
2019-03-04T07:48:18.095Z,26.37
2019-03-04T07:50:49.627Z,24.10
2019-03-04T07:53:22.062Z,22.62
2019-03-04T07:55:53.467Z,25.32
2019-03-04T07:58:25.880Z,21.40
2019-03-04T08:00:57.372Z,26.42
2019-03-04T08:03:28.729Z,27.07
2019-03-04T08:06:01.684Z,29.72
2019-03-04T18:42:15.931Z,39.05
2019-03-04T18:45:08.419Z,35.00
2019-03-04T18:47:54.686Z,35.83
2019-03-04T18:50:26.419Z,34.75
2019-03-04T18:52:57.767Z,31.73
2019-03-04T18:55:30.643Z,32.60
2019-03-04T18:58:02.020Z,33.50
2019-03-04T19:00:33.453Z,26.87
2019-03-04T19:03:04.901Z,37.20
2019-03-04T19:05:36.397Z,37.30
2019-03-04T19:08:08.133Z,35.00
2019-03-04T19:10:39.644Z,36.45
2019-03-04T19:13:11.037Z,27.87
2019-03-04T19:15:43.532Z,39.92
2019-03-04T19:18:14.868Z,37.95
2019-03-04T19:20:46.443Z,38.92
2019-03-04T19:23:17.906Z,41.77
2019-03-04T19:25:49.417Z,40.60
2019-03-04T19:28:20.777Z,37.23
2019-03-04T19:30:52.130Z,44.75
2019-03-04T19:33:23.508Z,39.53
2019-03-04T19:35:54.973Z,39.80
2019-03-04T19:38:26.476Z,39.92
2019-03-04T19:40:57.969Z,28.67
2019-03-04T19:43:32.969Z,38.73
2019-03-04T19:46:02.475Z,39.03
2019-03-04T19:48:33.957Z,41.85
2019-03-04T19:51:05.263Z,29.18
2019-03-04T19:53:38.510Z,38.80
2019-03-04T19:56:12.691Z,37.93
2019-03-04T19:58:47.482Z,38.92
2019-03-04T20:01:40.308Z,38.33
2019-03-04T20:04:14.614Z,39.08
2019-03-04T20:06:51.536Z,37.67
2019-03-04T20:09:26.408Z,36.33
2019-03-04T20:11:59.421Z,33.58
2019-03-04T20:14:31.767Z,34.63
2019-03-04T20:17:03.237Z,35.15
2019-03-04T20:19:37.388Z,34.58
2019-03-04T20:22:08.645Z,36.45
2019-03-04T20:24:40.148Z,36.35
2019-03-04T20:27:11.536Z,37.28
2019-03-04T20:29:42.842Z,40.23
2019-03-04T20:32:14.385Z,36.77
2019-03-04T20:34:45.698Z,39.03
2019-03-04T20:37:17.050Z,35.48
2019-03-04T20:39:48.530Z,39.70
2019-03-04T20:42:19.976Z,34.25
2019-03-04T20:44:51.310Z,34.67
2019-03-04T20:47:22.660Z,35.65
2019-03-04T20:49:54.220Z,34.65
2019-03-04T20:52:25.540Z,33.58
2019-03-04T20:54:56.910Z,34.23
2019-03-04T20:57:28.337Z,35.98
2019-03-04T20:59:59.702Z,33.92
2019-03-04T21:02:31.006Z,35.00
2019-03-04T21:05:02.454Z,35.23
2019-03-04T21:07:34.967Z,35.17
2019-03-04T21:10:11.839Z,33.90
2019-03-04T21:12:43.181Z,38.90
2019-03-04T21:15:15.308Z,35.83
2019-03-04T21:17:46.803Z,35.65
2019-03-04T21:20:19.175Z,35.70
2019-03-04T21:22:50.483Z,33.35
2019-03-04T21:25:51.255Z,35.25
2019-03-04T21:28:34.345Z,32.53
2019-03-04T21:31:17.607Z,33.55
2019-03-04T21:33:54.696Z,35.65
2019-03-04T21:36:35.235Z,33.28
2019-03-04T21:39:08.183Z,35.35
2019-03-04T21:41:43.377Z,35.98
2019-03-04T21:44:23.878Z,33.05
2019-03-04T21:47:03.792Z,35.35
2019-03-04T21:49:39.150Z,35.20
2019-03-04T21:52:43.755Z,33.53
2019-03-04T21:55:21.329Z,33.42
2019-03-04T21:57:54.383Z,32.53
2019-03-04T22:00:30.117Z,33.02
2019-03-04T22:03:04.619Z,32.10
2019-03-04T22:05:37.334Z,35.28
2019-03-04T22:08:08.924Z,32.42
2019-03-04T22:10:40.321Z,34.10
2019-03-04T22:13:11.789Z,33.73
2019-03-04T22:15:43.360Z,33.28
2019-03-04T22:18:14.699Z,32.85
2019-03-04T22:20:46.016Z,30.17
2019-03-04T22:23:17.337Z,34.65
2019-03-04T22:25:48.707Z,32.90
2019-03-04T22:28:20.284Z,34.27
2019-03-04T22:30:51.673Z,32.23
2019-03-04T22:33:23.048Z,33.08
2019-03-04T22:35:54.421Z,31.45
2019-03-04T22:38:25.876Z,33.20
2019-03-04T22:40:57.173Z,34.78
2019-03-04T22:43:28.571Z,29.10
2019-03-04T22:45:59.901Z,28.83
2019-03-04T22:48:31.366Z,34.03
2019-03-04T22:51:02.866Z,32.70
2019-03-04T22:53:34.180Z,29.15
2019-03-04T22:56:05.624Z,31.45
2019-03-04T22:58:36.976Z,33.90
2019-03-04T23:01:15.791Z,33.98
2019-03-04T23:03:47.620Z,30.75
2019-03-04T23:06:28.093Z,30.75
2019-03-04T23:08:59.561Z,27.77
2019-03-04T23:11:31.977Z,32.83
2019-03-04T23:14:09.289Z,30.32
2019-03-04T23:16:40.743Z,32.33
2019-03-04T23:19:12.076Z,25.50
2019-03-04T23:21:43.473Z,31.23
2019-03-04T23:24:14.928Z,32.45
2019-03-04T23:26:46.173Z,24.52
2019-03-04T23:29:17.483Z,31.33
2019-03-04T23:31:48.965Z,31.12
2019-03-04T23:34:20.148Z,29.05
2019-03-04T23:36:51.562Z,26.62
2019-03-04T23:39:23.041Z,31.12
2019-03-04T23:41:54.401Z,29.60
2019-03-04T23:44:25.779Z,31.52
2019-03-04T23:46:57.084Z,30.30
2019-03-04T23:49:28.522Z,30.12
2019-03-04T23:51:59.853Z,30.32
2019-03-04T23:54:31.218Z,24.15
2019-03-04T23:57:02.632Z,33.53
2019-03-04T23:59:33.955Z,29.32
